createdAt,value
2023-01-19T00:00:00.376Z,1.49
2023-01-19T00:05:06.566Z,1.50
2023-01-19T00:10:09.960Z,1.51
2023-01-19T00:15:12.644Z,1.55
2023-01-19T00:20:16.581Z,1.56
2023-01-19T00:25:18.869Z,1.53
2023-01-19T00:30:21.191Z,1.50
2023-01-19T00:35:24.123Z,1.54
2023-01-19T00:40:26.386Z,1.63
2023-01-19T00:45:29.298Z,1.68
2023-01-19T00:50:32.714Z,1.64
2023-01-19T00:55:36.047Z,1.67
2023-01-19T01:00:38.811Z,1.78
2023-01-19T01:05:42.124Z,1.80
2023-01-19T01:10:43.989Z,1.74
2023-01-19T01:15:49.973Z,1.72
2023-01-19T01:20:54.577Z,1.75
2023-01-19T01:25:58.563Z,1.77
2023-01-19T01:31:01.708Z,1.76
2023-01-19T01:36:04.473Z,1.75
2023-01-19T01:41:06.922Z,1.82
2023-01-19T01:46:09.449Z,1.94
2023-01-19T01:51:47.163Z,2.01
2023-01-19T01:56:54.851Z,1.95
2023-01-19T02:02:18.207Z,2.02
2023-01-19T02:07:50.060Z,2.12
2023-01-19T02:13:12.318Z,2.22
2023-01-19T02:18:15.922Z,2.22
2023-01-19T02:23:41.913Z,2.28
2023-01-19T02:28:58.633Z,2.31
2023-01-19T02:34:05.154Z,2.24
2023-01-19T02:39:10.475Z,2.19
2023-01-19T02:44:14.843Z,2.23
2023-01-19T02:49:19.019Z,2.25
2023-01-19T02:54:47.501Z,2.11
2023-01-19T03:00:19.081Z,2.07
2023-01-19T03:05:41.745Z,2.15
2023-01-19T03:11:02.445Z,2.17
2023-01-19T03:16:28.676Z,2.16
2023-01-19T03:21:35.509Z,2.07
2023-01-19T03:26:44.787Z,1.99
2023-01-19T03:31:50.705Z,1.91
2023-01-19T03:36:58.694Z,1.84
2023-01-19T03:42:11.381Z,1.81
2023-01-19T03:47:14.716Z,1.88
2023-01-19T03:52:17.572Z,1.90
2023-01-19T03:57:20.835Z,1.85
2023-01-19T04:02:25.473Z,1.77
2023-01-19T04:07:28.993Z,1.77
2023-01-19T04:12:31.519Z,1.79
2023-01-19T04:17:34.261Z,1.89
2023-01-19T04:22:39.456Z,1.83
2023-01-19T04:27:42.988Z,1.78
2023-01-19T04:32:46.905Z,1.87
2023-01-19T04:37:49.943Z,1.96
2023-01-19T04:42:54.501Z,2.00
2023-01-19T04:47:58.050Z,1.96
2023-01-19T04:53:03.435Z,2.00
2023-01-19T04:58:08.740Z,2.08
2023-01-19T05:03:11.540Z,2.11
2023-01-19T05:08:14.563Z,2.05
2023-01-19T05:13:18.986Z,2.01
2023-01-19T05:18:21.831Z,2.06
2023-01-19T05:23:23.998Z,2.10
2023-01-19T05:28:26.569Z,2.10
2023-01-19T05:33:30.442Z,2.14
2023-01-19T05:38:36.001Z,2.18
2023-01-19T05:43:40.557Z,2.14
2023-01-19T05:48:45.384Z,2.15
2023-01-19T05:53:47.852Z,2.08
2023-01-19T05:58:51.039Z,2.07
2023-01-19T06:03:53.488Z,2.09
2023-01-19T06:08:56.666Z,2.09
2023-01-19T06:13:58.890Z,2.08
2023-01-19T06:19:01.686Z,2.10
2023-01-19T06:24:04.835Z,2.04
2023-01-19T06:29:09.290Z,1.99
2023-01-19T06:34:13.504Z,1.96
2023-01-19T06:39:16.145Z,1.93
2023-01-19T06:44:19.820Z,1.90
2023-01-19T06:49:22.835Z,1.85
2023-01-19T06:54:27.535Z,1.83
2023-01-19T06:59:32.503Z,1.83
2023-01-19T07:04:35.051Z,1.84
2023-01-19T07:09:38.268Z,1.76
2023-01-19T07:14:42.075Z,1.66
2023-01-19T07:19:47.688Z,1.65
2023-01-19T07:24:51.393Z,1.70
2023-01-19T07:29:54.779Z,1.73
2023-01-19T07:34:57.621Z,1.70
2023-01-19T07:40:01.260Z,1.75
2023-01-19T07:45:04.651Z,1.77
2023-01-19T07:50:07.461Z,1.75
2023-01-19T07:55:10.178Z,1.78
2023-01-19T08:00:14.580Z,1.89
2023-01-19T08:05:19.588Z,1.95
2023-01-19T08:10:25.566Z,1.94
2023-01-19T08:15:28.613Z,1.90
2023-01-19T08:20:32.581Z,1.97
2023-01-19T08:25:46.004Z,2.02
2023-01-19T08:30:54.845Z,2.01
2023-01-19T08:35:58.919Z,1.99
2023-01-19T08:41:01.867Z,1.99
2023-01-19T08:46:05.371Z,2.01
2023-01-19T08:51:07.492Z,2.04
2023-01-19T08:56:14.039Z,2.02
2023-01-19T09:01:16.775Z,2.05
2023-01-19T09:06:19.638Z,2.12
2023-01-19T09:11:23.030Z,2.17
2023-01-19T09:16:27.214Z,2.23
2023-01-19T09:21:30.448Z,2.29
2023-01-19T09:26:33.301Z,2.43
2023-01-19T09:31:35.855Z,2.60
2023-01-19T09:36:39.739Z,2.72
2023-01-19T09:41:47.534Z,2.85
2023-01-19T09:46:49.763Z,2.98
2023-01-19T09:51:52.273Z,3.06
2023-01-19T09:56:54.529Z,3.05
2023-01-19T10:02:03.129Z,2.98
2023-01-19T10:07:31.427Z,2.98
2023-01-19T10:12:54.247Z,3.05
2023-01-19T10:18:34.934Z,3.10
2023-01-19T10:24:01.488Z,3.15
2023-01-19T10:29:30.595Z,3.15
2023-01-19T10:34:34.157Z,3.05
2023-01-19T10:39:38.738Z,3.01
2023-01-19T10:44:42.593Z,2.99
2023-01-19T10:49:48.312Z,2.95
2023-01-19T10:54:52.979Z,2.91
2023-01-19T11:00:01.996Z,2.90
2023-01-19T11:05:27.427Z,2.90
2023-01-19T11:10:31.165Z,2.90
2023-01-19T11:15:44.876Z,2.81
2023-01-19T11:20:48.526Z,2.75
2023-01-19T11:25:54.858Z,2.69
2023-01-19T11:31:11.246Z,2.68
2023-01-19T11:36:25.887Z,2.65
2023-01-19T11:41:35.207Z,2.60
2023-01-19T11:46:45.219Z,2.58
2023-01-19T11:52:27.454Z,2.56
2023-01-19T11:57:31.752Z,2.59
2023-01-19T12:02:45.496Z,2.66
2023-01-19T12:07:50.533Z,2.73
2023-01-19T12:12:55.519Z,2.74
2023-01-19T12:18:00.708Z,2.83
2023-01-19T12:23:18.963Z,2.86
2023-01-19T12:28:31.392Z,2.90
2023-01-19T12:33:41.373Z,2.96
2023-01-19T12:38:56.029Z,2.95
2023-01-19T12:44:12.423Z,2.93
2023-01-19T12:49:29.376Z,2.93
2023-01-19T12:54:32.460Z,2.89
2023-01-19T12:59:37.039Z,2.85
2023-01-19T13:04:39.136Z,2.81
2023-01-19T13:09:42.915Z,2.76
2023-01-19T13:14:45.226Z,2.76
2023-01-19T13:19:52.490Z,2.74
2023-01-19T13:25:07.773Z,2.69
2023-01-19T13:30:17.780Z,2.68
2023-01-19T13:35:20.751Z,2.65
2023-01-19T13:40:27.289Z,2.66
2023-01-19T13:45:37.514Z,2.67
2023-01-19T13:50:39.638Z,2.65
2023-01-19T13:55:42.124Z,2.68
2023-01-19T14:00:45.433Z,2.76
2023-01-19T14:05:51.764Z,2.82
2023-01-19T14:10:54.210Z,2.82
2023-01-19T14:16:00.587Z,2.79
2023-01-19T14:21:03.325Z,2.72
2023-01-19T14:26:43.237Z,2.66
2023-01-19T14:32:09.071Z,2.64
2023-01-19T14:37:22.333Z,2.65
2023-01-19T14:42:32.075Z,2.64
2023-01-19T14:47:41.459Z,2.56
2023-01-19T14:52:54.619Z,2.43
2023-01-19T14:57:56.759Z,2.29
2023-01-19T15:02:58.875Z,2.21
2023-01-19T15:08:02.770Z,2.21
2023-01-19T15:13:05.437Z,2.21
2023-01-19T15:18:17.189Z,2.20
2023-01-19T15:23:19.656Z,2.20
2023-01-19T15:28:23.007Z,2.19
2023-01-19T15:33:30.688Z,2.18
2023-01-19T15:38:34.694Z,2.11
2023-01-19T15:43:37.586Z,2.07
2023-01-19T15:48:39.870Z,2.04
2023-01-19T15:53:42.729Z,2.04
2023-01-19T15:58:44.784Z,2.05
2023-01-19T16:03:47.174Z,2.03
2023-01-19T16:08:49.426Z,2.02
2023-01-19T16:13:51.903Z,1.98
2023-01-19T16:18:55.180Z,1.96
2023-01-19T16:23:58.419Z,1.93
2023-01-19T16:29:08.079Z,1.91
2023-01-19T16:34:12.005Z,1.90
2023-01-19T16:39:15.809Z,1.85
2023-01-19T16:44:20.287Z,1.84
2023-01-19T16:49:28.572Z,1.81
2023-01-19T16:54:32.643Z,1.83
2023-01-19T16:59:36.419Z,1.84
2023-01-19T17:04:39.226Z,1.84
2023-01-19T17:09:41.996Z,1.77
2023-01-19T17:14:50.086Z,1.81
2023-01-19T17:19:57.163Z,1.87
2023-01-19T17:25:00.338Z,1.83
2023-01-19T17:30:05.203Z,1.79
2023-01-19T17:35:09.454Z,1.76
2023-01-19T17:40:12.276Z,1.82
2023-01-19T17:45:16.198Z,1.86
2023-01-19T17:50:18.768Z,1.85
2023-01-19T17:55:20.806Z,1.85
2023-01-19T18:00:23.474Z,1.84
2023-01-19T18:05:25.775Z,1.84
2023-01-19T18:10:27.920Z,1.85
2023-01-19T18:15:30.863Z,1.83
2023-01-19T18:20:33.351Z,1.76
2023-01-19T18:25:35.396Z,1.73
2023-01-19T18:30:38.934Z,1.72
2023-01-19T18:35:42.918Z,1.74
2023-01-19T18:40:47.269Z,1.77
2023-01-19T18:45:50.065Z,1.72
2023-01-19T18:50:53.720Z,1.66
2023-01-19T18:55:59.013Z,1.63
2023-01-19T19:01:06.982Z,1.60
2023-01-19T19:06:10.241Z,1.57
2023-01-19T19:11:14.541Z,1.59
2023-01-19T19:16:18.137Z,1.59
2023-01-19T19:21:22.102Z,1.53
2023-01-19T19:26:25.773Z,1.51
2023-01-19T19:31:29.820Z,1.50
2023-01-19T19:36:33.009Z,1.51
2023-01-19T19:41:38.132Z,1.54
2023-01-19T19:46:41.664Z,1.53
2023-01-19T19:51:44.220Z,1.52
2023-01-19T19:56:48.109Z,1.51
2023-01-19T20:01:53.980Z,1.51
2023-01-19T20:07:00.289Z,1.52
2023-01-19T20:12:04.957Z,1.53
2023-01-19T20:17:08.534Z,1.54
2023-01-19T20:22:13.235Z,1.47
2023-01-19T20:27:17.458Z,1.41
2023-01-19T20:32:21.017Z,1.39
2023-01-19T20:37:27.558Z,1.40
2023-01-19T20:42:31.567Z,1.43
2023-01-19T20:47:38.582Z,1.46
2023-01-19T20:52:43.185Z,1.45
2023-01-19T20:57:47.821Z,1.43
2023-01-19T21:02:51.909Z,1.43
2023-01-19T21:07:56.289Z,1.45
2023-01-19T21:12:59.954Z,1.43
2023-01-19T21:18:03.721Z,1.41
2023-01-19T21:23:07.202Z,1.40
2023-01-19T21:28:10.433Z,1.43
2023-01-19T21:33:14.507Z,1.46
2023-01-19T21:38:17.156Z,1.48
2023-01-19T21:43:21.059Z,1.45
2023-01-19T21:48:28.361Z,1.40
2023-01-19T21:53:32.224Z,1.44
2023-01-19T21:58:35.536Z,1.44
2023-01-19T22:03:38.834Z,1.42
2023-01-19T22:08:42.760Z,1.38
2023-01-19T22:13:47.023Z,1.39
2023-01-19T22:18:54.098Z,1.40
2023-01-19T22:23:59.863Z,1.38
2023-01-19T22:29:05.184Z,1.33
2023-01-19T22:34:11.013Z,1.30
2023-01-19T22:39:16.819Z,1.29
2023-01-19T22:44:21.518Z,1.28
2023-01-19T22:49:24.715Z,1.19
2023-01-19T22:54:30.080Z,1.15
2023-01-19T22:59:32.911Z,1.17
2023-01-19T23:04:35.076Z,1.11
2023-01-19T23:09:37.646Z,1.05
2023-01-19T23:14:39.742Z,1.06
2023-01-19T23:19:44.361Z,1.08
2023-01-19T23:24:46.776Z,1.09
2023-01-19T23:29:49.366Z,1.08
2023-01-19T23:34:51.629Z,1.02
2023-01-19T23:39:53.851Z,0.94
2023-01-19T23:44:56.440Z,0.93
2023-01-19T23:49:59.016Z,0.93
2023-01-19T23:55:02.069Z,0.92
